createdAt,value
2022-10-06T00:00:47.022Z,81.16
2022-10-06T00:03:13.446Z,81.54
2022-10-06T00:05:39.843Z,80.55
2022-10-06T00:08:10.023Z,81.80
2022-10-06T00:10:36.775Z,80.88
2022-10-06T00:13:03.444Z,79.76
2022-10-06T00:15:31.658Z,80.80
2022-10-06T00:17:58.601Z,82.19
2022-10-06T00:20:28.939Z,82.06
2022-10-06T00:22:56.997Z,80.69
2022-10-06T00:25:25.134Z,82.78
2022-10-06T00:27:52.760Z,84.48
2022-10-06T00:30:23.784Z,84.15
2022-10-06T00:32:59.196Z,82.45
2022-10-06T00:35:27.605Z,82.40
2022-10-06T00:37:54.341Z,83.83
2022-10-06T00:40:21.969Z,84.23
2022-10-06T00:42:54.379Z,84.22
2022-10-06T00:45:41.000Z,84.45
2022-10-06T00:48:16.277Z,84.86
2022-10-06T00:50:42.813Z,85.48
2022-10-06T00:53:10.069Z,85.77
2022-10-06T00:55:36.444Z,85.18
2022-10-06T00:58:03.085Z,84.08
2022-10-06T01:00:29.611Z,84.95
2022-10-06T01:03:09.721Z,85.30
2022-10-06T01:05:43.356Z,86.32
2022-10-06T01:08:09.854Z,85.99
2022-10-06T01:10:36.230Z,86.05
2022-10-06T01:13:02.714Z,85.89
2022-10-06T01:15:29.285Z,86.48
2022-10-06T01:18:05.809Z,86.71
2022-10-06T01:20:32.884Z,86.78
2022-10-06T01:23:05.239Z,86.83
2022-10-06T01:25:34.022Z,87.01
2022-10-06T01:28:02.902Z,87.06
2022-10-06T01:30:32.882Z,86.76
2022-10-06T01:32:59.497Z,86.99
2022-10-06T01:35:25.861Z,87.60
2022-10-06T01:37:52.294Z,86.91
2022-10-06T01:40:19.153Z,87.92
2022-10-06T01:42:45.574Z,88.18
2022-10-06T01:45:12.230Z,87.76
2022-10-06T01:47:38.680Z,87.28
2022-10-06T01:50:06.588Z,87.40
2022-10-06T01:52:32.921Z,86.68
2022-10-06T01:54:59.328Z,85.81
2022-10-06T01:57:25.759Z,85.48
2022-10-06T01:59:54.852Z,85.63
2022-10-06T02:02:21.680Z,85.95
2022-10-06T02:04:48.489Z,85.78
2022-10-06T02:07:15.090Z,84.71
2022-10-06T02:09:41.452Z,85.82
2022-10-06T02:12:07.940Z,84.06
2022-10-06T02:14:34.797Z,85.09
2022-10-06T02:17:01.417Z,85.44
2022-10-06T02:19:27.850Z,85.17
2022-10-06T02:21:54.266Z,85.75
2022-10-06T02:24:20.604Z,86.40
2022-10-06T02:26:47.026Z,86.77
2022-10-06T02:29:13.377Z,87.12
2022-10-06T02:31:39.914Z,87.68
2022-10-06T02:34:06.324Z,88.55
2022-10-06T02:36:32.926Z,88.51
2022-10-06T02:38:59.340Z,88.28
2022-10-06T02:41:25.684Z,88.17
2022-10-06T02:43:55.078Z,88.41
2022-10-06T02:46:22.128Z,88.28
2022-10-06T02:48:48.575Z,88.11
2022-10-06T02:51:17.804Z,86.44
2022-10-06T02:53:45.824Z,86.48
2022-10-06T02:56:17.656Z,85.82
2022-10-06T02:58:45.485Z,86.45
2022-10-06T03:01:15.442Z,85.50
2022-10-06T03:03:42.584Z,84.63
2022-10-06T03:06:24.019Z,85.81
2022-10-06T03:08:59.302Z,85.78
2022-10-06T03:11:28.533Z,86.05
2022-10-06T03:13:55.394Z,85.06
2022-10-06T03:16:26.271Z,84.56
2022-10-06T03:18:55.276Z,85.12
2022-10-06T03:21:24.684Z,83.94
2022-10-06T03:23:53.308Z,85.18
2022-10-06T03:26:22.873Z,83.42
2022-10-06T03:28:49.425Z,83.75
2022-10-06T03:31:16.405Z,83.10
2022-10-06T03:33:42.800Z,84.12
2022-10-06T03:36:14.635Z,83.46
2022-10-06T03:38:41.576Z,83.76
2022-10-06T03:41:09.118Z,83.64
2022-10-06T03:43:36.687Z,82.80
2022-10-06T03:46:04.678Z,83.19
2022-10-06T03:48:35.549Z,82.40
2022-10-06T03:51:05.174Z,83.12
2022-10-06T03:53:32.029Z,82.95
2022-10-06T03:56:08.420Z,82.79
2022-10-06T03:58:37.306Z,83.51
2022-10-06T04:01:05.220Z,83.72
2022-10-06T04:03:32.841Z,83.26
2022-10-06T04:06:01.643Z,83.10
2022-10-06T04:08:30.060Z,84.08
2022-10-06T04:11:06.302Z,83.32
2022-10-06T04:13:33.446Z,83.62
2022-10-06T04:16:09.785Z,82.78
2022-10-06T04:18:36.231Z,83.09
2022-10-06T04:21:02.581Z,82.42
2022-10-06T04:23:28.965Z,82.82
2022-10-06T04:25:59.649Z,83.46
2022-10-06T04:28:26.804Z,83.65
2022-10-06T04:31:02.978Z,84.47
2022-10-06T04:33:30.547Z,84.30
2022-10-06T04:35:58.456Z,82.87
2022-10-06T04:38:25.189Z,83.14
2022-10-06T04:40:51.598Z,82.61
2022-10-06T04:43:17.997Z,82.20
2022-10-06T04:45:44.398Z,82.54
2022-10-06T04:48:10.790Z,81.90
2022-10-06T04:50:37.173Z,81.86
2022-10-06T04:53:03.581Z,81.16
2022-10-06T04:55:29.934Z,80.91
2022-10-06T04:57:56.267Z,81.27
2022-10-06T05:00:22.646Z,81.30
2022-10-06T05:02:49.055Z,81.73
2022-10-06T05:05:15.483Z,82.50
2022-10-06T05:07:45.139Z,82.24
2022-10-06T05:10:11.653Z,82.95
2022-10-06T05:12:37.982Z,82.55
2022-10-06T05:15:05.133Z,81.83
2022-10-06T05:17:31.464Z,81.70
2022-10-06T05:19:57.842Z,82.59
2022-10-06T05:22:24.278Z,81.05
2022-10-06T05:24:53.766Z,79.91
2022-10-06T05:27:20.682Z,79.81
2022-10-06T05:29:47.683Z,80.89
2022-10-06T05:32:14.042Z,80.46
2022-10-06T05:34:40.401Z,82.15
2022-10-06T05:37:06.787Z,82.22
2022-10-06T05:39:33.101Z,82.51
2022-10-06T05:41:59.433Z,81.25
2022-10-06T05:44:25.885Z,81.01
2022-10-06T05:46:52.355Z,81.29
2022-10-06T05:49:18.777Z,81.89
2022-10-06T05:51:45.322Z,81.20
2022-10-06T05:54:14.174Z,81.61
2022-10-06T05:56:41.236Z,81.64
2022-10-06T05:59:07.667Z,81.04
2022-10-06T06:01:39.966Z,80.79
2022-10-06T06:04:09.886Z,79.88
2022-10-06T06:06:41.973Z,80.13
2022-10-06T06:09:17.062Z,81.97
2022-10-06T06:11:44.734Z,82.76
2022-10-06T06:14:16.418Z,82.23
2022-10-06T06:16:44.474Z,81.62
2022-10-06T06:19:13.107Z,82.17
2022-10-06T06:21:39.951Z,82.42
2022-10-06T06:24:06.903Z,81.81
2022-10-06T06:26:36.866Z,81.68
2022-10-06T06:29:04.193Z,82.28
2022-10-06T06:31:36.321Z,83.22
2022-10-06T06:34:06.425Z,82.46
2022-10-06T06:36:35.795Z,82.44
2022-10-06T06:39:08.265Z,82.32
2022-10-06T06:41:37.756Z,81.73
2022-10-06T06:44:11.113Z,80.71
2022-10-06T06:46:38.526Z,79.53
2022-10-06T06:49:06.474Z,80.13
2022-10-06T06:51:38.148Z,79.12
2022-10-06T06:54:04.966Z,78.74
2022-10-06T06:56:34.717Z,78.37
2022-10-06T06:59:02.794Z,79.45
2022-10-06T07:01:29.234Z,78.77
2022-10-06T07:03:59.116Z,79.05
2022-10-06T07:06:28.799Z,77.51
2022-10-06T07:08:57.085Z,78.08
2022-10-06T07:11:24.801Z,76.32
2022-10-06T07:14:01.520Z,76.04
2022-10-06T07:16:48.265Z,75.65
2022-10-06T07:19:36.289Z,75.65
2022-10-06T07:22:23.016Z,74.37
2022-10-06T07:25:07.405Z,75.34
2022-10-06T07:27:42.380Z,74.60
2022-10-06T07:30:12.438Z,73.78
2022-10-06T07:32:38.808Z,74.15
2022-10-06T07:35:06.656Z,72.75
2022-10-06T07:37:34.951Z,72.34
2022-10-06T07:40:01.970Z,71.02
2022-10-06T07:42:28.505Z,70.96
2022-10-06T07:45:13.556Z,69.46
2022-10-06T07:47:39.986Z,69.55
2022-10-06T07:50:08.181Z,70.75
2022-10-06T07:52:39.235Z,70.98
2022-10-06T07:55:06.751Z,68.01
2022-10-06T07:57:35.042Z,66.33
2022-10-06T08:00:05.408Z,66.80
2022-10-06T08:02:35.497Z,66.62
2022-10-06T08:05:03.153Z,65.55
2022-10-06T08:07:29.550Z,64.99
2022-10-06T08:09:55.929Z,65.02
2022-10-06T08:12:34.278Z,63.74
2022-10-06T08:15:07.088Z,63.35
2022-10-06T08:17:35.886Z,63.36
2022-10-06T08:20:02.349Z,62.47
2022-10-06T08:22:30.066Z,60.49
2022-10-06T08:25:05.802Z,62.33
2022-10-06T08:27:34.891Z,58.86
2022-10-06T08:30:02.138Z,59.82
2022-10-06T08:32:28.619Z,58.59
2022-10-06T08:34:55.270Z,59.23
2022-10-06T08:37:23.841Z,58.62
2022-10-06T08:39:54.442Z,59.07
2022-10-06T08:42:32.344Z,58.26
2022-10-06T08:45:02.751Z,59.00
2022-10-06T08:47:33.772Z,57.35
2022-10-06T08:50:00.806Z,55.48
2022-10-06T08:52:44.306Z,56.37
2022-10-06T08:55:32.309Z,55.30
2022-10-06T08:58:34.941Z,54.12
2022-10-06T09:01:15.314Z,53.95
2022-10-06T09:03:48.458Z,53.20
2022-10-06T09:06:45.820Z,54.07
2022-10-06T09:09:37.060Z,55.25
2022-10-06T09:12:08.486Z,52.89
2022-10-06T09:15:09.666Z,53.21
2022-10-06T09:17:43.084Z,53.48
2022-10-06T09:20:54.090Z,51.49
2022-10-06T09:23:39.078Z,51.28
2022-10-06T09:26:10.697Z,52.25
2022-10-06T09:28:37.472Z,51.60
2022-10-06T09:31:26.281Z,51.56
2022-10-06T09:34:36.244Z,48.50
2022-10-06T09:37:07.458Z,47.29
2022-10-06T09:39:37.081Z,46.70
2022-10-06T09:42:09.586Z,49.34
2022-10-06T09:44:51.422Z,47.97
2022-10-06T09:47:38.837Z,45.86
2022-10-06T09:50:22.644Z,44.63
2022-10-06T09:52:57.877Z,44.06
2022-10-06T09:55:29.614Z,43.50
2022-10-06T09:57:57.301Z,43.60
2022-10-06T10:00:31.138Z,43.17
2022-10-06T10:03:04.638Z,41.66
2022-10-06T10:05:37.698Z,44.38
2022-10-06T10:08:17.157Z,40.87
2022-10-06T10:10:43.556Z,42.19
2022-10-06T10:13:24.510Z,41.39
2022-10-06T10:15:58.676Z,41.61
2022-10-06T10:18:35.418Z,39.34
2022-10-06T10:21:10.395Z,38.30
2022-10-06T10:23:40.491Z,39.14
2022-10-06T10:26:26.829Z,39.06
2022-10-06T10:29:02.145Z,41.55
2022-10-06T10:31:41.498Z,39.08
2022-10-06T10:34:59.083Z,38.48
2022-10-06T10:37:33.442Z,36.27
2022-10-06T10:40:24.993Z,35.71
2022-10-06T10:43:22.362Z,35.13
2022-10-06T10:45:58.010Z,33.72
2022-10-06T10:48:39.147Z,34.19
2022-10-06T10:51:19.468Z,34.14
2022-10-06T10:53:53.102Z,35.13
2022-10-06T10:56:23.940Z,33.57
2022-10-06T10:59:15.463Z,35.31
2022-10-06T11:02:16.786Z,34.38
2022-10-06T11:04:49.445Z,32.57
2022-10-06T11:07:51.897Z,32.83
2022-10-06T11:10:38.261Z,32.31
2022-10-06T11:13:14.157Z,31.88
2022-10-06T11:15:59.965Z,33.46
2022-10-06T11:18:38.191Z,32.83
2022-10-06T11:21:57.268Z,32.06
2022-10-06T11:24:54.871Z,33.54
2022-10-06T11:27:39.194Z,32.28
2022-10-06T11:30:15.531Z,31.29
2022-10-06T11:33:03.915Z,30.76
2022-10-06T11:35:37.005Z,30.54
2022-10-06T11:38:30.272Z,31.96
2022-10-06T11:41:18.786Z,32.76
2022-10-06T11:44:04.905Z,30.88
2022-10-06T11:46:45.123Z,31.86
2022-10-06T11:49:29.980Z,32.17
2022-10-06T11:52:00.147Z,30.44
2022-10-06T11:54:36.086Z,33.13
2022-10-06T11:57:02.440Z,31.64
2022-10-06T11:59:31.346Z,30.76
2022-10-06T12:01:58.266Z,29.44
2022-10-06T12:04:26.371Z,30.84
2022-10-06T12:06:54.184Z,29.55
2022-10-06T12:09:30.880Z,28.94
2022-10-06T12:12:15.385Z,30.31
2022-10-06T12:17:55.381Z,29.61
2022-10-06T12:20:38.446Z,30.11
2022-10-06T12:23:23.197Z,30.72
2022-10-06T12:26:03.191Z,30.50
2022-10-06T12:28:44.285Z,30.98
2022-10-06T12:31:30.969Z,30.61
2022-10-06T12:33:57.659Z,31.34
2022-10-06T12:36:31.987Z,29.46
2022-10-06T12:39:05.028Z,30.76
2022-10-06T12:42:09.449Z,30.09
2022-10-06T12:44:42.845Z,30.42
2022-10-06T12:47:37.134Z,30.59
2022-10-06T12:50:15.157Z,30.70
2022-10-06T12:52:58.923Z,30.90
2022-10-06T12:55:49.047Z,30.32
2022-10-06T12:58:19.695Z,30.49
2022-10-06T13:00:47.152Z,30.80
2022-10-06T13:03:19.390Z,30.28
2022-10-06T13:05:51.625Z,30.69
2022-10-06T13:08:26.780Z,30.65
2022-10-06T13:11:19.536Z,31.45
2022-10-06T13:13:51.524Z,30.33
2022-10-06T13:16:42.864Z,30.44
2022-10-06T13:19:24.160Z,30.85
2022-10-06T13:21:50.965Z,30.20
2022-10-06T13:24:20.678Z,30.55
2022-10-06T13:26:48.134Z,31.38
2022-10-06T13:29:24.089Z,32.84
2022-10-06T13:31:53.306Z,32.47
2022-10-06T13:34:43.246Z,32.96
2022-10-06T13:37:14.993Z,34.10
2022-10-06T13:39:41.516Z,33.96
2022-10-06T13:42:17.842Z,33.79
2022-10-06T13:44:53.992Z,33.31
2022-10-06T13:47:23.077Z,34.44
2022-10-06T13:50:01.838Z,34.30
2022-10-06T13:52:35.332Z,35.47
2022-10-06T13:55:03.413Z,35.68
2022-10-06T13:57:40.110Z,36.08
2022-10-06T14:00:15.638Z,35.20
2022-10-06T14:02:47.155Z,34.44
2022-10-06T14:05:37.499Z,33.22
2022-10-06T14:08:19.887Z,33.95
2022-10-06T14:10:50.461Z,34.49
2022-10-06T14:13:21.491Z,34.53
2022-10-06T14:15:58.294Z,35.96
2022-10-06T14:18:46.720Z,34.64
2022-10-06T14:21:36.787Z,35.88
2022-10-06T14:24:07.795Z,36.49
2022-10-06T14:26:37.420Z,35.34
2022-10-06T14:29:04.485Z,36.65
2022-10-06T14:31:33.294Z,35.34
2022-10-06T14:34:00.682Z,36.62
2022-10-06T14:36:29.904Z,36.97
2022-10-06T14:38:58.066Z,37.50
2022-10-06T14:41:29.889Z,35.90
2022-10-06T14:43:58.911Z,36.55
2022-10-06T14:46:25.621Z,35.74
2022-10-06T14:48:52.511Z,37.30
2022-10-06T14:51:20.153Z,37.05
2022-10-06T14:53:54.810Z,38.40
2022-10-06T14:56:23.045Z,38.78
2022-10-06T14:58:50.822Z,36.72
2022-10-06T15:01:19.258Z,37.41
2022-10-06T15:03:57.044Z,36.18
2022-10-06T15:06:42.066Z,37.84
2022-10-06T15:09:08.982Z,37.91
2022-10-06T15:11:36.344Z,37.72
2022-10-06T15:14:03.784Z,37.72
2022-10-06T15:16:33.206Z,38.81
2022-10-06T15:19:00.585Z,38.83
2022-10-06T15:21:27.621Z,40.36
2022-10-06T15:23:59.297Z,39.93
2022-10-06T15:26:45.223Z,40.31
2022-10-06T15:29:13.360Z,41.13
2022-10-06T15:31:42.215Z,40.85
2022-10-06T15:34:11.181Z,41.12
2022-10-06T15:36:39.640Z,42.73
2022-10-06T15:39:07.453Z,42.33
2022-10-06T15:41:35.633Z,41.59
2022-10-06T15:44:03.132Z,42.45
2022-10-06T15:46:35.111Z,42.32
2022-10-06T15:49:05.951Z,42.09
2022-10-06T15:51:46.645Z,42.29
2022-10-06T15:54:15.207Z,43.19
2022-10-06T15:56:42.238Z,43.13
2022-10-06T15:59:08.648Z,44.20
2022-10-06T16:01:43.064Z,42.74
2022-10-06T16:04:29.254Z,43.56
2022-10-06T16:06:56.305Z,43.85
2022-10-06T16:09:25.105Z,43.97
2022-10-06T16:11:52.908Z,44.75
2022-10-06T16:14:19.667Z,44.26
2022-10-06T16:16:47.184Z,44.64
2022-10-06T16:19:14.887Z,46.83
2022-10-06T16:21:42.257Z,48.50
2022-10-06T16:24:09.690Z,47.04
2022-10-06T16:26:36.188Z,46.07
2022-10-06T16:29:03.268Z,46.54
2022-10-06T16:31:29.680Z,46.11
2022-10-06T16:33:56.173Z,47.36
2022-10-06T16:36:22.903Z,48.28
2022-10-06T16:38:51.128Z,49.31
2022-10-06T16:41:18.402Z,50.62
2022-10-06T16:43:48.534Z,52.15
2022-10-06T16:46:22.507Z,54.41
2022-10-06T16:48:50.914Z,56.45
2022-10-06T16:51:20.592Z,59.17
2022-10-06T16:53:48.557Z,60.81
2022-10-06T16:56:22.368Z,61.88
2022-10-06T16:58:55.998Z,62.33
2022-10-06T17:01:25.544Z,62.37
2022-10-06T17:04:05.347Z,63.94
2022-10-06T17:06:39.251Z,65.25
2022-10-06T17:09:08.189Z,65.65
2022-10-06T17:11:35.899Z,65.73
2022-10-06T17:14:03.185Z,66.48
2022-10-06T17:16:32.095Z,67.06
2022-10-06T17:18:59.146Z,67.50
2022-10-06T17:21:45.006Z,68.55
2022-10-06T17:24:12.840Z,68.80
2022-10-06T17:26:41.787Z,68.29
2022-10-06T17:29:13.696Z,69.01
2022-10-06T17:31:43.253Z,69.89
2022-10-06T17:34:19.570Z,69.79
2022-10-06T17:36:49.006Z,69.95
2022-10-06T17:39:18.216Z,70.22
2022-10-06T17:41:46.293Z,70.28
2022-10-06T17:44:18.865Z,70.12
2022-10-06T17:46:45.521Z,70.66
2022-10-06T17:49:19.165Z,71.38
2022-10-06T17:51:47.554Z,71.67
2022-10-06T17:54:18.952Z,72.47
2022-10-06T17:56:47.311Z,73.16
2022-10-06T17:59:16.675Z,72.74
2022-10-06T18:01:45.496Z,73.32
2022-10-06T18:04:15.981Z,73.80
2022-10-06T18:06:47.428Z,73.10
2022-10-06T18:09:15.172Z,73.86
2022-10-06T18:11:48.334Z,75.01
2022-10-06T18:14:19.260Z,74.79
2022-10-06T18:16:52.218Z,74.91
2022-10-06T18:19:33.034Z,74.99
2022-10-06T18:22:02.158Z,75.49
2022-10-06T18:24:30.637Z,75.95
2022-10-06T18:26:59.905Z,76.15
2022-10-06T18:29:30.858Z,75.98
2022-10-06T18:32:09.446Z,75.71
2022-10-06T18:37:30.011Z,76.56
2022-10-06T18:39:56.966Z,76.71
2022-10-06T18:42:24.123Z,77.33
2022-10-06T18:45:09.109Z,77.19
2022-10-06T18:47:54.335Z,77.67
2022-10-06T18:50:20.683Z,77.42
2022-10-06T18:52:47.061Z,77.32
2022-10-06T18:55:13.645Z,76.88
2022-10-06T18:57:40.725Z,76.55
2022-10-06T19:00:09.229Z,77.37
2022-10-06T19:02:35.641Z,78.30
2022-10-06T19:05:02.330Z,78.45
2022-10-06T19:07:30.580Z,77.56
2022-10-06T19:09:56.970Z,77.27
2022-10-06T19:12:23.490Z,78.69
2022-10-06T19:14:50.286Z,78.44
2022-10-06T19:17:16.838Z,77.82
2022-10-06T19:19:54.831Z,78.13
2022-10-06T19:22:24.505Z,78.41
2022-10-06T19:24:51.294Z,78.31
2022-10-06T19:27:20.860Z,78.41
2022-10-06T19:29:54.091Z,78.58
2022-10-06T19:32:24.904Z,78.60
2022-10-06T19:34:52.153Z,77.78
2022-10-06T19:37:18.991Z,78.87
2022-10-06T19:39:46.989Z,78.63
2022-10-06T19:42:35.294Z,78.76
2022-10-06T19:45:02.803Z,78.84
2022-10-06T19:47:29.743Z,78.46
2022-10-06T19:50:00.799Z,79.13
2022-10-06T19:52:32.928Z,78.90
2022-10-06T19:55:00.648Z,79.00
2022-10-06T19:57:28.942Z,79.00
2022-10-06T19:59:55.347Z,79.59
2022-10-06T20:02:21.831Z,80.01
2022-10-06T20:04:48.318Z,80.28
2022-10-06T20:07:14.724Z,80.38
2022-10-06T20:09:41.345Z,80.32
2022-10-06T20:12:07.665Z,79.94
2022-10-06T20:14:34.355Z,79.52
2022-10-06T20:17:02.734Z,79.30
2022-10-06T20:19:29.435Z,80.23
2022-10-06T20:21:55.931Z,80.83
2022-10-06T20:24:24.685Z,79.87
2022-10-06T20:26:53.077Z,79.71
2022-10-06T20:29:25.313Z,80.00
2022-10-06T20:31:54.026Z,79.62
2022-10-06T20:34:23.789Z,79.95
2022-10-06T20:36:55.586Z,80.44
2022-10-06T20:39:41.697Z,80.04
2022-10-06T20:42:13.952Z,79.58
2022-10-06T20:44:42.322Z,80.23
2022-10-06T20:47:10.221Z,79.73
2022-10-06T20:49:36.861Z,80.25
2022-10-06T20:52:04.663Z,80.07
2022-10-06T20:54:34.499Z,79.96
2022-10-06T20:57:03.287Z,80.24
2022-10-06T20:59:35.372Z,80.46
2022-10-06T21:02:03.200Z,81.03
2022-10-06T21:04:30.182Z,80.44
2022-10-06T21:06:57.309Z,80.87
2022-10-06T21:09:28.533Z,80.88
2022-10-06T21:11:56.485Z,80.53
2022-10-06T21:14:23.446Z,80.89
2022-10-06T21:16:50.830Z,80.36
2022-10-06T21:19:19.389Z,80.58
2022-10-06T21:21:52.202Z,80.47
2022-10-06T21:24:19.547Z,80.45
2022-10-06T21:26:46.054Z,80.54
2022-10-06T21:29:16.209Z,81.21
2022-10-06T21:31:44.236Z,80.88
2022-10-06T21:34:11.041Z,80.62
2022-10-06T21:36:38.037Z,80.67
2022-10-06T21:39:05.821Z,80.75
2022-10-06T21:41:39.321Z,81.03
2022-10-06T21:44:07.154Z,81.34
2022-10-06T21:46:42.323Z,81.17
2022-10-06T21:49:14.627Z,81.17
2022-10-06T21:51:42.864Z,81.47
2022-10-06T21:54:12.168Z,81.35
2022-10-06T21:56:39.401Z,80.99
2022-10-06T21:59:06.635Z,81.15
2022-10-06T22:01:35.607Z,81.08
2022-10-06T22:04:02.765Z,80.83
2022-10-06T22:06:30.453Z,81.48
2022-10-06T22:08:58.505Z,81.53
2022-10-06T22:11:29.861Z,80.85
2022-10-06T22:13:59.505Z,81.28
2022-10-06T22:16:28.253Z,81.08
2022-10-06T22:18:55.649Z,81.99
2022-10-06T22:21:26.014Z,82.22
2022-10-06T22:24:00.810Z,82.53
2022-10-06T22:26:28.865Z,82.34
2022-10-06T22:28:56.976Z,82.28
2022-10-06T22:31:26.259Z,82.12
2022-10-06T22:33:58.318Z,83.10
2022-10-06T22:36:26.217Z,82.48
2022-10-06T22:38:53.209Z,82.40
2022-10-06T22:41:19.763Z,82.13
2022-10-06T22:43:46.314Z,82.63
2022-10-06T22:46:13.782Z,82.21
2022-10-06T22:48:40.776Z,83.23
2022-10-06T22:51:07.874Z,82.71
2022-10-06T22:53:35.021Z,82.77
2022-10-06T22:56:02.401Z,82.53
2022-10-06T22:58:29.241Z,82.50
2022-10-06T23:00:55.928Z,82.62
2022-10-06T23:03:23.573Z,82.66
2022-10-06T23:05:55.027Z,82.58
2022-10-06T23:08:21.561Z,83.14
2022-10-06T23:10:48.106Z,82.56
2022-10-06T23:13:14.641Z,82.87
2022-10-06T23:15:41.125Z,82.89
2022-10-06T23:18:08.301Z,82.48
2022-10-06T23:20:34.827Z,83.33
2022-10-06T23:23:01.975Z,82.65
2022-10-06T23:25:28.497Z,83.26
2022-10-06T23:27:54.965Z,83.20
2022-10-06T23:30:21.484Z,82.76
2022-10-06T23:32:48.034Z,82.97
2022-10-06T23:35:14.856Z,82.39
2022-10-06T23:37:41.699Z,83.07
2022-10-06T23:40:08.933Z,82.78
2022-10-06T23:42:35.433Z,83.34
2022-10-06T23:45:02.140Z,83.12
2022-10-06T23:47:28.856Z,82.92
2022-10-06T23:49:55.389Z,83.39
2022-10-06T23:52:21.927Z,83.27
2022-10-06T23:54:48.746Z,83.53
2022-10-06T23:57:15.294Z,84.12
2022-10-06T23:59:41.805Z,83.74
